createdAt,value
2019-03-30T00:00:26.266Z,1025.12
2019-03-30T00:01:26.312Z,1025.14
2019-03-30T00:02:26.203Z,1025.13
2019-03-30T00:03:26.172Z,1025.15
2019-03-30T00:04:26.142Z,1025.10
2019-03-30T00:05:26.110Z,1025.08
2019-03-30T00:06:26.080Z,1025.05
2019-03-30T00:07:26.047Z,1025.06
2019-03-30T00:08:26.017Z,1025.07
2019-03-30T00:09:25.985Z,1025.06
2019-03-30T00:10:25.955Z,1025.05
2019-03-30T00:11:25.976Z,1025.05
2019-03-30T00:12:25.895Z,1025.06
2019-03-30T00:13:25.872Z,1025.05
2019-03-30T00:14:25.831Z,1025.05
2019-03-30T00:15:25.800Z,1025.03
2019-03-30T00:16:25.770Z,1025.02
2019-03-30T00:17:25.738Z,1025.02
2019-03-30T00:18:25.708Z,1024.98
2019-03-30T00:19:34.890Z,1025.05
2019-03-30T00:20:25.646Z,1025.02
2019-03-30T00:21:25.615Z,1025.02
2019-03-30T00:22:25.584Z,1025.02
2019-03-30T00:23:25.553Z,1025.03
2019-03-30T00:24:25.522Z,1025.02
2019-03-30T00:25:25.490Z,1024.98
2019-03-30T00:26:25.459Z,1024.95
2019-03-30T00:27:25.433Z,1024.95
2019-03-30T00:28:25.399Z,1024.94
2019-03-30T00:29:25.366Z,1024.93
2019-03-30T00:30:25.336Z,1024.90
2019-03-30T00:31:25.305Z,1024.90
2019-03-30T00:32:25.274Z,1024.91
2019-03-30T00:33:25.240Z,1024.87
2019-03-30T00:34:25.210Z,1024.88
2019-03-30T00:35:25.183Z,1024.85
2019-03-30T00:36:25.149Z,1024.85
2019-03-30T00:37:25.118Z,1024.88
2019-03-30T00:38:25.086Z,1024.83
2019-03-30T00:39:25.058Z,1024.81
2019-03-30T00:40:25.024Z,1024.81
2019-03-30T00:41:24.996Z,1024.79
2019-03-30T00:42:24.960Z,1024.76
2019-03-30T00:43:24.929Z,1024.75
2019-03-30T00:44:24.899Z,1024.74
2019-03-30T00:45:24.868Z,1024.76
2019-03-30T00:46:24.836Z,1024.71
2019-03-30T00:47:24.802Z,1024.72
2019-03-30T00:48:24.773Z,1024.69
2019-03-30T00:49:24.741Z,1024.71
2019-03-30T00:50:24.710Z,1024.70
2019-03-30T00:51:24.685Z,1024.64
2019-03-30T00:52:24.647Z,1024.66
2019-03-30T00:53:24.618Z,1024.64
2019-03-30T00:54:24.584Z,1024.63
2019-03-30T00:55:24.554Z,1024.61
2019-03-30T00:56:24.523Z,1024.67
2019-03-30T00:57:24.489Z,1024.60
2019-03-30T00:58:25.791Z,1024.62
2019-03-30T00:59:24.427Z,1024.62
2019-03-30T01:00:24.397Z,1024.61
2019-03-30T01:01:24.363Z,1024.64
2019-03-30T01:02:24.333Z,1024.60
2019-03-30T01:03:24.301Z,1024.58
2019-03-30T01:04:24.271Z,1024.61
2019-03-30T01:05:24.238Z,1024.61
2019-03-30T01:06:24.207Z,1024.62
2019-03-30T01:07:24.175Z,1024.60
2019-03-30T01:08:24.144Z,1024.57
2019-03-30T01:09:24.111Z,1024.57
2019-03-30T01:10:24.081Z,1024.58
2019-03-30T01:11:24.049Z,1024.60
2019-03-30T01:12:24.016Z,1024.55
2019-03-30T01:13:23.984Z,1024.55
2019-03-30T01:14:23.958Z,1024.52
2019-03-30T01:15:23.922Z,1024.57
2019-03-30T01:16:23.890Z,1024.58
2019-03-30T01:17:23.859Z,1024.52
2019-03-30T01:18:23.828Z,1024.55
2019-03-30T01:19:23.797Z,1024.54
2019-03-30T01:20:23.765Z,1024.50
2019-03-30T01:21:23.733Z,1024.47
2019-03-30T01:22:23.701Z,1024.47
2019-03-30T01:23:23.668Z,1024.48
2019-03-30T01:24:23.638Z,1024.44
2019-03-30T01:25:23.606Z,1024.46
2019-03-30T01:26:23.574Z,1024.45
2019-03-30T01:27:23.543Z,1024.45
2019-03-30T01:28:23.513Z,1024.42
2019-03-30T01:29:23.480Z,1024.42
2019-03-30T01:30:23.805Z,1024.39
2019-03-30T01:31:23.415Z,1024.37
2019-03-30T01:32:23.387Z,1024.38
2019-03-30T01:33:23.353Z,1024.41
2019-03-30T01:34:23.322Z,1024.40
2019-03-30T01:35:23.331Z,1024.37
2019-03-30T01:36:23.259Z,1024.37
2019-03-30T01:37:23.233Z,1024.41
2019-03-30T01:38:23.196Z,1024.40
2019-03-30T01:39:23.207Z,1024.38
2019-03-30T01:40:23.131Z,1024.36
2019-03-30T01:41:23.098Z,1024.37
2019-03-30T01:42:23.068Z,1024.39
2019-03-30T01:43:23.036Z,1024.35
2019-03-30T01:44:23.006Z,1024.31
2019-03-30T01:45:22.973Z,1024.34
2019-03-30T01:46:22.942Z,1024.32
2019-03-30T01:47:22.910Z,1024.33
2019-03-30T01:48:22.878Z,1024.29
2019-03-30T01:49:22.848Z,1024.30
2019-03-30T01:50:22.813Z,1024.27
2019-03-30T01:51:22.782Z,1024.33
2019-03-30T01:52:22.751Z,1024.29
2019-03-30T01:53:22.717Z,1024.29
2019-03-30T01:54:22.687Z,1024.31
2019-03-30T01:55:22.655Z,1024.28
2019-03-30T01:56:22.623Z,1024.28
2019-03-30T01:57:22.591Z,1024.27
2019-03-30T01:58:22.558Z,1024.27
2019-03-30T01:59:22.528Z,1024.24
2019-03-30T02:00:22.496Z,1024.22
2019-03-30T02:01:22.463Z,1024.22
2019-03-30T02:02:22.433Z,1024.21
2019-03-30T02:03:22.400Z,1024.16
2019-03-30T02:04:22.368Z,1024.20
2019-03-30T02:05:22.336Z,1024.18
2019-03-30T02:06:22.304Z,1024.24
2019-03-30T02:07:22.276Z,1024.19
2019-03-30T02:08:22.245Z,1024.13
2019-03-30T02:09:22.209Z,1024.20
2019-03-30T02:10:22.180Z,1024.16
2019-03-30T02:11:22.147Z,1024.17
2019-03-30T02:12:22.192Z,1024.12
2019-03-30T02:13:22.082Z,1024.17
2019-03-30T02:14:22.051Z,1024.14
2019-03-30T02:15:22.020Z,1024.18
2019-03-30T02:16:21.988Z,1024.10
2019-03-30T02:17:21.955Z,1024.09
2019-03-30T02:18:21.924Z,1024.08
2019-03-30T02:19:21.893Z,1024.05
2019-03-30T02:20:30.623Z,1024.07
2019-03-30T02:21:21.827Z,1024.09
2019-03-30T02:22:21.796Z,1024.05
2019-03-30T02:23:21.766Z,1024.03
2019-03-30T02:24:21.733Z,1024.03
2019-03-30T02:25:21.701Z,1024.00
2019-03-30T02:26:21.669Z,1024.02
2019-03-30T02:27:21.637Z,1024.05
2019-03-30T02:28:21.604Z,1024.01
2019-03-30T02:29:21.573Z,1024.03
2019-03-30T02:30:21.542Z,1024.01
2019-03-30T02:31:21.512Z,1024.00
2019-03-30T02:32:21.478Z,1024.00
2019-03-30T02:33:21.451Z,1024.00
2019-03-30T02:34:21.414Z,1024.00
2019-03-30T02:35:21.383Z,1023.98
2019-03-30T02:36:21.350Z,1023.96
2019-03-30T02:37:21.319Z,1023.95
2019-03-30T02:38:21.293Z,1024.00
2019-03-30T02:39:21.253Z,1023.99
2019-03-30T02:40:21.226Z,1024.02
2019-03-30T02:41:21.191Z,1023.99
2019-03-30T02:42:21.157Z,1023.95
2019-03-30T02:43:21.126Z,1023.95
2019-03-30T02:44:21.094Z,1023.91
2019-03-30T02:45:21.068Z,1023.91
2019-03-30T02:46:21.030Z,1023.91
2019-03-30T02:47:20.997Z,1023.92
2019-03-30T02:48:20.969Z,1023.94
2019-03-30T02:49:20.934Z,1023.91
2019-03-30T02:50:20.911Z,1023.93
2019-03-30T02:51:20.871Z,1023.89
2019-03-30T02:52:20.838Z,1023.91
2019-03-30T02:53:20.805Z,1023.90
2019-03-30T02:54:20.775Z,1023.82
2019-03-30T02:55:20.743Z,1023.85
2019-03-30T02:56:20.713Z,1023.89
2019-03-30T02:57:20.679Z,1023.82
2019-03-30T02:58:20.647Z,1023.81
2019-03-30T02:59:20.624Z,1023.84
2019-03-30T03:00:20.582Z,1023.81
2019-03-30T03:01:20.556Z,1023.81
2019-03-30T03:02:20.518Z,1023.79
2019-03-30T03:03:20.488Z,1023.76
2019-03-30T03:04:20.455Z,1023.78
2019-03-30T03:05:20.423Z,1023.74
2019-03-30T03:06:20.391Z,1023.76
2019-03-30T03:07:20.360Z,1023.79
2019-03-30T03:08:20.326Z,1023.72
2019-03-30T03:09:20.297Z,1023.74
2019-03-30T03:10:20.275Z,1023.74
2019-03-30T03:11:20.235Z,1023.70
2019-03-30T03:12:20.198Z,1023.75
2019-03-30T03:13:20.165Z,1023.73
2019-03-30T03:14:20.139Z,1023.72
2019-03-30T03:15:20.103Z,1023.70
2019-03-30T03:16:20.070Z,1023.71
2019-03-30T03:17:20.036Z,1023.70
2019-03-30T03:18:20.006Z,1023.70
2019-03-30T03:19:19.973Z,1023.68
2019-03-30T03:20:19.941Z,1023.66
2019-03-30T03:21:19.908Z,1023.65
2019-03-30T03:22:19.878Z,1023.65
2019-03-30T03:23:19.845Z,1023.65
2019-03-30T03:24:19.813Z,1023.67
2019-03-30T03:25:19.780Z,1023.64
2019-03-30T03:26:19.749Z,1023.68
2019-03-30T03:27:19.716Z,1023.66
2019-03-30T03:28:19.683Z,1023.66
2019-03-30T03:29:19.652Z,1023.69
2019-03-30T03:30:19.622Z,1023.64
2019-03-30T03:31:19.588Z,1023.63
2019-03-30T03:32:19.571Z,1023.63
2019-03-30T03:33:19.523Z,1023.62
2019-03-30T03:34:19.510Z,1023.57
2019-03-30T03:35:19.460Z,1023.61
2019-03-30T03:36:19.427Z,1023.59
2019-03-30T03:37:19.401Z,1023.57
2019-03-30T03:38:19.362Z,1023.59
2019-03-30T03:39:19.331Z,1023.62
2019-03-30T03:40:19.304Z,1023.60
2019-03-30T03:41:19.263Z,1023.59
2019-03-30T03:42:19.253Z,1023.57
2019-03-30T03:43:19.200Z,1023.61
2019-03-30T03:44:19.168Z,1023.61
2019-03-30T03:45:19.138Z,1023.54
2019-03-30T03:46:19.104Z,1023.53
2019-03-30T03:47:19.073Z,1023.58
2019-03-30T03:48:19.039Z,1023.52
2019-03-30T03:49:19.006Z,1023.56
2019-03-30T03:50:18.974Z,1023.56
2019-03-30T03:51:26.323Z,1023.56
2019-03-30T03:52:18.910Z,1023.57
2019-03-30T03:53:18.918Z,1023.58
2019-03-30T03:54:18.853Z,1023.55
2019-03-30T03:55:18.811Z,1023.57
2019-03-30T03:56:18.788Z,1023.55
2019-03-30T03:57:18.745Z,1023.49
2019-03-30T03:58:18.713Z,1023.50
2019-03-30T03:59:18.693Z,1023.51
2019-03-30T04:00:18.654Z,1023.51
2019-03-30T04:01:18.633Z,1023.45
2019-03-30T04:02:18.593Z,1023.50
2019-03-30T04:03:18.559Z,1023.50
2019-03-30T04:04:18.521Z,1023.48
2019-03-30T04:05:18.488Z,1023.43
2019-03-30T04:06:18.461Z,1023.48
2019-03-30T04:07:18.424Z,1023.36
2019-03-30T04:08:18.399Z,1023.40
2019-03-30T04:09:18.357Z,1023.39
2019-03-30T04:10:18.326Z,1023.39
2019-03-30T04:11:18.294Z,1023.41
2019-03-30T04:12:18.261Z,1023.32
2019-03-30T04:13:18.227Z,1023.34
2019-03-30T04:14:18.196Z,1023.32
2019-03-30T04:15:18.166Z,1023.34
2019-03-30T04:16:18.131Z,1023.31
2019-03-30T04:17:18.130Z,1023.32
2019-03-30T04:18:18.065Z,1023.32
2019-03-30T04:19:18.034Z,1023.29
2019-03-30T04:20:17.999Z,1023.30
2019-03-30T04:21:17.966Z,1023.33
2019-03-30T04:22:17.934Z,1023.35
2019-03-30T04:23:17.901Z,1023.30
2019-03-30T04:24:17.869Z,1023.25
2019-03-30T04:25:17.836Z,1023.25
2019-03-30T04:26:17.805Z,1023.23
2019-03-30T04:27:17.771Z,1023.20
2019-03-30T04:28:17.740Z,1023.18
2019-03-30T04:29:17.706Z,1023.19
2019-03-30T04:30:17.673Z,1023.18
2019-03-30T04:31:17.643Z,1023.13
2019-03-30T04:32:17.606Z,1023.13
2019-03-30T04:33:17.577Z,1023.11
2019-03-30T04:34:17.544Z,1023.11
2019-03-30T04:35:17.511Z,1023.10
2019-03-30T04:36:17.484Z,1023.06
2019-03-30T04:37:17.446Z,1023.09
2019-03-30T04:38:17.424Z,1023.09
2019-03-30T04:39:17.380Z,1023.06
2019-03-30T04:40:17.348Z,1023.09
2019-03-30T04:41:17.313Z,1023.09
2019-03-30T04:42:17.283Z,1023.14
2019-03-30T04:43:17.251Z,1023.11
2019-03-30T04:44:17.224Z,1023.09
2019-03-30T04:45:17.188Z,1023.14
2019-03-30T04:46:17.150Z,1023.12
2019-03-30T04:47:17.119Z,1023.08
2019-03-30T04:48:17.090Z,1023.10
2019-03-30T04:49:17.055Z,1023.06
2019-03-30T04:50:17.045Z,1023.07
2019-03-30T04:51:16.989Z,1023.03
2019-03-30T04:52:16.955Z,1023.07
2019-03-30T04:53:16.923Z,1023.07
2019-03-30T04:54:16.893Z,1023.05
2019-03-30T04:55:16.860Z,1023.07
2019-03-30T04:56:16.828Z,1023.06
2019-03-30T04:57:16.793Z,1023.07
2019-03-30T04:58:16.761Z,1023.07
2019-03-30T04:59:16.733Z,1023.08
2019-03-30T05:00:16.699Z,1023.10
2019-03-30T05:01:16.663Z,1023.06
2019-03-30T05:02:16.632Z,1023.11
2019-03-30T05:03:16.601Z,1023.10
2019-03-30T05:04:16.566Z,1023.11
2019-03-30T05:05:16.533Z,1023.12
2019-03-30T05:06:16.501Z,1023.10
2019-03-30T05:07:16.468Z,1023.09
2019-03-30T05:08:16.436Z,1023.11
2019-03-30T05:09:16.403Z,1023.08
2019-03-30T05:10:16.369Z,1023.05
2019-03-30T05:11:16.339Z,1023.06
2019-03-30T05:12:16.359Z,1023.03
2019-03-30T05:13:16.274Z,1023.06
2019-03-30T05:14:16.240Z,1023.07
2019-03-30T05:15:16.209Z,1023.04
2019-03-30T05:16:16.175Z,1023.03
2019-03-30T05:17:16.141Z,1023.03
2019-03-30T05:18:16.111Z,1023.03
2019-03-30T05:19:16.079Z,1023.02
2019-03-30T05:20:16.047Z,1023.01
2019-03-30T05:21:16.213Z,1022.99
2019-03-30T05:22:16.684Z,1023.00
2019-03-30T05:23:15.949Z,1022.99
2019-03-30T05:24:15.918Z,1022.99
2019-03-30T05:25:15.884Z,1022.97
2019-03-30T05:26:15.855Z,1023.01
2019-03-30T05:27:15.821Z,1023.01
2019-03-30T05:28:15.829Z,1023.02
2019-03-30T05:29:15.755Z,1023.01
2019-03-30T05:30:15.723Z,1022.97
2019-03-30T05:31:15.691Z,1022.97
2019-03-30T05:32:15.661Z,1022.97
2019-03-30T05:33:15.626Z,1022.93
2019-03-30T05:34:15.594Z,1022.97
2019-03-30T05:35:15.562Z,1022.94
2019-03-30T05:36:15.531Z,1022.95
2019-03-30T05:37:15.498Z,1022.90
2019-03-30T05:38:15.467Z,1022.91
2019-03-30T05:39:15.438Z,1022.90
2019-03-30T05:40:15.402Z,1022.87
2019-03-30T05:41:15.370Z,1022.88
2019-03-30T05:42:15.338Z,1022.92
2019-03-30T05:43:15.308Z,1022.92
2019-03-30T05:44:15.282Z,1022.94
2019-03-30T05:45:15.244Z,1022.92
2019-03-30T05:46:15.213Z,1022.93
2019-03-30T05:47:15.183Z,1022.95
2019-03-30T05:48:15.151Z,1022.96
2019-03-30T05:49:15.119Z,1022.92
2019-03-30T05:50:15.087Z,1022.90
2019-03-30T05:51:15.058Z,1022.92
2019-03-30T05:52:25.835Z,1022.94
2019-03-30T05:53:14.997Z,1022.92
2019-03-30T05:54:14.967Z,1022.90
2019-03-30T05:55:14.937Z,1022.90
2019-03-30T05:56:14.909Z,1022.85
2019-03-30T05:57:14.876Z,1022.87
2019-03-30T05:58:14.846Z,1022.91
2019-03-30T05:59:14.818Z,1022.92
2019-03-30T06:00:14.789Z,1022.91
2019-03-30T06:01:14.759Z,1022.89
2019-03-30T06:02:14.730Z,1022.91
2019-03-30T06:03:14.701Z,1022.93
2019-03-30T06:04:14.675Z,1022.91
2019-03-30T06:05:14.643Z,1022.92
2019-03-30T06:06:14.613Z,1022.93
2019-03-30T06:07:14.586Z,1022.93
2019-03-30T06:08:14.557Z,1022.90
2019-03-30T06:09:14.534Z,1022.88
2019-03-30T06:10:14.500Z,1022.86
2019-03-30T06:11:14.475Z,1022.90
2019-03-30T06:12:14.446Z,1022.90
2019-03-30T06:13:14.415Z,1022.88
2019-03-30T06:14:14.386Z,1022.85
2019-03-30T06:15:14.360Z,1022.87
2019-03-30T06:16:14.333Z,1022.88
2019-03-30T06:17:14.306Z,1022.85
2019-03-30T06:18:14.279Z,1022.84
2019-03-30T06:19:14.252Z,1022.84
2019-03-30T06:20:14.228Z,1022.91
2019-03-30T06:21:14.199Z,1022.88
2019-03-30T06:22:14.173Z,1022.86
2019-03-30T06:23:14.146Z,1022.84
2019-03-30T06:24:14.121Z,1022.85
2019-03-30T06:25:14.097Z,1022.84
2019-03-30T06:26:14.070Z,1022.85
2019-03-30T06:27:14.060Z,1022.87
2019-03-30T06:28:14.021Z,1022.82
2019-03-30T06:29:13.994Z,1022.83
2019-03-30T06:30:13.968Z,1022.84
2019-03-30T06:31:13.949Z,1022.83
2019-03-30T06:32:13.921Z,1022.88
2019-03-30T06:33:13.899Z,1022.87
2019-03-30T06:34:13.872Z,1022.89
2019-03-30T06:35:13.849Z,1022.86
2019-03-30T06:36:13.824Z,1022.86
2019-03-30T06:37:13.800Z,1022.87
2019-03-30T06:38:13.778Z,1022.86
2019-03-30T06:39:13.752Z,1022.85
2019-03-30T06:40:13.728Z,1022.87
2019-03-30T06:41:13.704Z,1022.87
2019-03-30T06:42:13.679Z,1022.86
2019-03-30T06:43:13.656Z,1022.86
2019-03-30T06:44:13.632Z,1022.85
2019-03-30T06:45:13.607Z,1022.87
2019-03-30T06:46:13.586Z,1022.90
2019-03-30T06:47:13.562Z,1022.88
2019-03-30T06:48:13.539Z,1022.86
2019-03-30T06:49:13.515Z,1022.85
2019-03-30T06:50:13.492Z,1022.92
2019-03-30T06:51:13.473Z,1022.90
2019-03-30T06:52:13.448Z,1022.89
2019-03-30T06:53:13.423Z,1022.87
2019-03-30T06:54:14.870Z,1022.86
2019-03-30T06:55:13.379Z,1022.89
2019-03-30T06:56:13.356Z,1022.85
2019-03-30T06:57:13.333Z,1022.86
2019-03-30T06:58:13.323Z,1022.86
2019-03-30T06:59:13.290Z,1022.86
2019-03-30T07:00:13.267Z,1022.82
2019-03-30T07:01:13.243Z,1022.81
2019-03-30T07:02:13.221Z,1022.81
2019-03-30T07:03:13.200Z,1022.82
2019-03-30T07:04:13.177Z,1022.78
2019-03-30T07:05:13.156Z,1022.79
2019-03-30T07:06:13.135Z,1022.80
2019-03-30T07:07:13.113Z,1022.74
2019-03-30T07:08:13.092Z,1022.76
2019-03-30T07:09:13.068Z,1022.74
2019-03-30T07:10:13.050Z,1022.76
2019-03-30T07:11:20.967Z,1022.79
2019-03-30T07:12:13.004Z,1022.78
2019-03-30T07:13:12.984Z,1022.80
2019-03-30T07:14:12.962Z,1022.76
2019-03-30T07:15:12.950Z,1022.76
2019-03-30T07:16:12.924Z,1022.75
2019-03-30T07:17:12.901Z,1022.76
2019-03-30T07:18:12.879Z,1022.73
2019-03-30T07:19:12.860Z,1022.72
2019-03-30T07:20:12.839Z,1022.73
2019-03-30T07:21:12.819Z,1022.68
2019-03-30T07:22:12.797Z,1022.69
2019-03-30T07:23:13.018Z,1022.70
2019-03-30T07:24:12.757Z,1022.67
2019-03-30T07:25:12.736Z,1022.66
2019-03-30T07:26:12.721Z,1022.69
2019-03-30T07:27:12.698Z,1022.68
2019-03-30T07:28:12.678Z,1022.70
2019-03-30T07:29:12.730Z,1022.67
2019-03-30T07:30:12.640Z,1022.71
2019-03-30T07:31:12.622Z,1022.69
2019-03-30T07:32:12.599Z,1022.67
2019-03-30T07:33:12.623Z,1022.66
2019-03-30T07:34:12.562Z,1022.68
2019-03-30T07:35:12.551Z,1022.68
2019-03-30T07:36:12.523Z,1022.62
2019-03-30T07:37:12.502Z,1022.62
2019-03-30T07:38:12.483Z,1022.62
2019-03-30T07:39:12.466Z,1022.60
2019-03-30T07:40:12.446Z,1022.62
2019-03-30T07:41:12.429Z,1022.61
2019-03-30T07:42:12.405Z,1022.61
2019-03-30T07:43:12.388Z,1022.58
2019-03-30T07:44:12.373Z,1022.60
2019-03-30T07:45:12.349Z,1022.58
2019-03-30T07:46:12.329Z,1022.59
2019-03-30T07:47:12.311Z,1022.55
2019-03-30T07:48:12.292Z,1022.59
2019-03-30T07:49:12.274Z,1022.54
2019-03-30T07:50:12.253Z,1022.55
2019-03-30T07:51:12.236Z,1022.52
2019-03-30T07:52:12.220Z,1022.48
2019-03-30T07:53:25.695Z,1022.46
2019-03-30T07:54:12.181Z,1022.50
2019-03-30T07:55:12.162Z,1022.46
2019-03-30T07:56:12.143Z,1022.49
2019-03-30T07:57:17.297Z,1022.49
2019-03-30T07:58:12.106Z,1022.43
2019-03-30T07:59:12.087Z,1022.45
2019-03-30T08:00:12.069Z,1022.43
2019-03-30T08:01:12.048Z,1022.44
2019-03-30T08:02:12.030Z,1022.48
2019-03-30T08:03:12.011Z,1022.43
2019-03-30T08:04:11.996Z,1022.45
2019-03-30T08:05:11.976Z,1022.47
2019-03-30T08:06:11.954Z,1022.45
2019-03-30T08:07:11.937Z,1022.47
2019-03-30T08:08:11.918Z,1022.45
2019-03-30T08:09:11.900Z,1022.44
2019-03-30T08:10:11.881Z,1022.41
2019-03-30T08:11:14.409Z,1022.41
2019-03-30T08:12:11.844Z,1022.40
2019-03-30T08:13:11.828Z,1022.36
2019-03-30T08:14:11.809Z,1022.31
2019-03-30T08:15:11.790Z,1022.32
2019-03-30T08:16:11.775Z,1022.32
2019-03-30T08:17:11.755Z,1022.28
2019-03-30T08:18:11.737Z,1022.31
2019-03-30T08:19:11.723Z,1022.33
2019-03-30T08:20:11.702Z,1022.28
2019-03-30T08:21:11.683Z,1022.31
2019-03-30T08:22:11.665Z,1022.32
2019-03-30T08:23:11.663Z,1022.25
2019-03-30T08:24:11.632Z,1022.27
2019-03-30T08:25:11.612Z,1022.27
2019-03-30T08:26:11.597Z,1022.23
2019-03-30T08:27:11.578Z,1022.23
2019-03-30T08:28:11.560Z,1022.19
2019-03-30T08:29:11.543Z,1022.13
2019-03-30T08:30:11.526Z,1022.12
2019-03-30T08:31:11.507Z,1022.14
2019-03-30T08:32:11.489Z,1022.15
2019-03-30T08:33:11.472Z,1022.11
2019-03-30T08:34:11.455Z,1022.12
2019-03-30T08:35:11.437Z,1022.08
2019-03-30T08:36:11.421Z,1022.13
2019-03-30T08:37:11.402Z,1022.09
2019-03-30T08:38:11.385Z,1022.05
2019-03-30T08:39:11.368Z,1022.05
2019-03-30T08:40:11.357Z,1021.99
2019-03-30T08:41:11.334Z,1022.08
2019-03-30T08:42:11.318Z,1022.02
2019-03-30T08:43:11.301Z,1022.05
2019-03-30T08:44:11.285Z,1022.05
2019-03-30T08:45:11.269Z,1022.04
2019-03-30T08:46:11.250Z,1022.10
2019-03-30T08:47:11.232Z,1022.01
2019-03-30T08:48:11.216Z,1022.03
2019-03-30T08:49:11.201Z,1022.00
2019-03-30T08:50:11.183Z,1021.99
2019-03-30T08:51:11.164Z,1021.98
2019-03-30T08:52:11.147Z,1022.01
2019-03-30T08:53:11.131Z,1022.01
2019-03-30T08:54:11.115Z,1022.02
2019-03-30T08:55:11.095Z,1021.95
2019-03-30T08:56:11.080Z,1021.97
2019-03-30T08:57:11.060Z,1021.98
2019-03-30T08:58:11.042Z,1021.95
2019-03-30T08:59:11.027Z,1021.94
2019-03-30T09:00:11.009Z,1021.89
2019-03-30T09:01:10.993Z,1021.86
2019-03-30T09:02:10.974Z,1021.86
2019-03-30T09:03:10.957Z,1021.83
2019-03-30T09:04:10.940Z,1021.81
2019-03-30T09:05:10.919Z,1021.87
2019-03-30T09:06:10.904Z,1021.84
2019-03-30T09:07:10.885Z,1021.87
2019-03-30T09:08:10.869Z,1021.85
2019-03-30T09:09:10.851Z,1021.87
2019-03-30T09:10:10.834Z,1021.85
2019-03-30T09:11:10.817Z,1021.85
2019-03-30T09:12:10.800Z,1021.79
2019-03-30T09:13:10.782Z,1021.76
2019-03-30T09:14:10.765Z,1021.80
2019-03-30T09:15:10.749Z,1021.76
2019-03-30T09:16:10.733Z,1021.78
2019-03-30T09:17:10.713Z,1021.76
2019-03-30T09:18:10.698Z,1021.73
2019-03-30T09:19:10.683Z,1021.67
2019-03-30T09:20:10.665Z,1021.68
2019-03-30T09:21:10.650Z,1021.67
2019-03-30T09:22:10.646Z,1021.70
2019-03-30T09:23:10.613Z,1021.65
2019-03-30T09:24:10.659Z,1021.66
2019-03-30T09:25:10.577Z,1021.64
2019-03-30T09:26:10.562Z,1021.61
2019-03-30T09:27:10.544Z,1021.58
2019-03-30T09:28:10.532Z,1021.64
2019-03-30T09:29:10.513Z,1021.59
2019-03-30T09:30:10.496Z,1021.56
2019-03-30T09:31:10.478Z,1021.56
2019-03-30T09:32:14.847Z,1021.51
2019-03-30T09:33:10.450Z,1021.53
2019-03-30T09:34:10.430Z,1021.49
2019-03-30T09:35:10.412Z,1021.50
2019-03-30T09:36:10.394Z,1021.45
2019-03-30T09:37:10.386Z,1021.40
2019-03-30T09:38:10.362Z,1021.39
2019-03-30T09:39:10.347Z,1021.42
2019-03-30T09:40:10.329Z,1021.36
2019-03-30T09:41:10.322Z,1021.33
2019-03-30T09:42:10.295Z,1021.33
2019-03-30T09:43:10.278Z,1021.30
2019-03-30T09:44:10.266Z,1021.37
2019-03-30T09:45:10.248Z,1021.30
2019-03-30T09:46:10.231Z,1021.32
2019-03-30T09:47:10.218Z,1021.34
2019-03-30T09:48:10.199Z,1021.27
2019-03-30T09:49:10.183Z,1021.22
2019-03-30T09:50:10.166Z,1021.20
2019-03-30T09:51:10.151Z,1021.24
2019-03-30T09:52:10.136Z,1021.22
2019-03-30T09:53:10.119Z,1021.15
2019-03-30T09:54:23.097Z,1021.06
2019-03-30T09:55:10.089Z,1021.11
2019-03-30T09:56:10.075Z,1021.00
2019-03-30T09:57:10.057Z,1021.03
2019-03-30T09:58:10.040Z,1021.00
2019-03-30T09:59:10.027Z,1020.98
2019-03-30T10:00:10.010Z,1021.02
2019-03-30T10:01:09.995Z,1021.02
2019-03-30T10:02:09.979Z,1020.96
2019-03-30T10:03:09.969Z,1020.96
2019-03-30T10:04:09.948Z,1020.89
2019-03-30T10:05:09.931Z,1020.90
2019-03-30T10:06:09.917Z,1020.92
2019-03-30T10:07:09.900Z,1020.88
2019-03-30T10:08:09.883Z,1020.88
2019-03-30T10:09:09.870Z,1020.86
2019-03-30T10:10:09.852Z,1020.84
2019-03-30T10:11:09.845Z,1020.87
2019-03-30T10:12:09.821Z,1020.87
2019-03-30T10:13:09.804Z,1020.87
2019-03-30T10:14:09.788Z,1020.85
2019-03-30T10:15:09.774Z,1020.83
2019-03-30T10:16:09.759Z,1020.90
2019-03-30T10:17:09.743Z,1020.92
2019-03-30T10:18:09.736Z,1020.84
2019-03-30T10:19:09.711Z,1020.87
2019-03-30T10:20:09.695Z,1020.85
2019-03-30T10:21:09.679Z,1020.79
2019-03-30T10:22:09.663Z,1020.87
2019-03-30T10:23:09.647Z,1020.79
2019-03-30T10:24:09.630Z,1020.85
2019-03-30T10:25:09.615Z,1020.79
2019-03-30T10:26:09.599Z,1020.77
2019-03-30T10:27:09.582Z,1020.81
2019-03-30T10:28:09.575Z,1020.81
2019-03-30T10:29:09.547Z,1020.77
2019-03-30T10:30:09.535Z,1020.79
2019-03-30T10:31:09.515Z,1020.82
2019-03-30T10:32:09.498Z,1020.76
2019-03-30T10:33:09.485Z,1020.77
2019-03-30T10:34:09.463Z,1020.87
2019-03-30T10:35:09.458Z,1020.83
2019-03-30T10:36:09.432Z,1020.82
2019-03-30T10:37:09.417Z,1020.87
2019-03-30T10:38:09.399Z,1020.80
2019-03-30T10:39:09.382Z,1020.86
2019-03-30T10:40:09.363Z,1020.77
2019-03-30T10:41:09.347Z,1020.71
2019-03-30T10:42:09.333Z,1020.70
2019-03-30T10:43:09.313Z,1020.73
2019-03-30T10:44:09.372Z,1020.74
2019-03-30T10:45:09.278Z,1020.69
2019-03-30T10:46:09.262Z,1020.70
2019-03-30T10:47:09.244Z,1020.69
2019-03-30T10:48:09.227Z,1020.67
2019-03-30T10:49:09.209Z,1020.67
2019-03-30T10:50:09.192Z,1020.64
2019-03-30T10:51:09.175Z,1020.66
2019-03-30T10:52:09.158Z,1020.67
2019-03-30T10:53:09.140Z,1020.67
2019-03-30T10:54:09.123Z,1020.63
2019-03-30T10:55:09.108Z,1020.65
2019-03-30T10:56:09.092Z,1020.62
2019-03-30T10:57:09.071Z,1020.58
2019-03-30T10:58:09.058Z,1020.57
2019-03-30T10:59:09.038Z,1020.52
2019-03-30T11:00:09.022Z,1020.50
2019-03-30T11:01:09.003Z,1020.51
2019-03-30T11:02:08.985Z,1020.46
2019-03-30T11:03:08.970Z,1020.48
2019-03-30T11:04:08.951Z,1020.45
2019-03-30T11:05:08.935Z,1020.37
2019-03-30T11:06:08.915Z,1020.37
2019-03-30T11:07:08.900Z,1020.38
2019-03-30T11:08:08.882Z,1020.32
2019-03-30T11:09:08.864Z,1020.31
2019-03-30T11:10:08.847Z,1020.34
2019-03-30T11:11:08.831Z,1020.40
2019-03-30T11:12:08.815Z,1020.37
2019-03-30T11:13:08.797Z,1020.33
2019-03-30T11:14:08.779Z,1020.29
2019-03-30T11:15:08.762Z,1020.30
2019-03-30T11:16:08.746Z,1020.23
2019-03-30T11:17:08.727Z,1020.21
2019-03-30T11:18:08.709Z,1020.14
2019-03-30T11:19:08.743Z,1020.22
2019-03-30T11:20:08.679Z,1020.11
2019-03-30T11:21:08.656Z,1020.09
2019-03-30T11:22:08.674Z,1020.17
2019-03-30T11:23:08.627Z,1020.12
2019-03-30T11:24:08.610Z,1020.14
2019-03-30T11:25:09.210Z,1020.13
2019-03-30T11:26:08.572Z,1020.16
2019-03-30T11:27:08.554Z,1020.15
2019-03-30T11:28:08.536Z,1020.11
2019-03-30T11:29:08.517Z,1020.15
2019-03-30T11:30:08.502Z,1020.09
2019-03-30T11:31:08.483Z,1020.07
2019-03-30T11:32:08.466Z,1020.00
2019-03-30T11:33:08.448Z,1020.04
2019-03-30T11:34:08.434Z,1020.07
2019-03-30T11:35:08.415Z,1019.99
2019-03-30T11:36:08.397Z,1020.13
2019-03-30T11:37:08.378Z,1020.07
2019-03-30T11:38:08.361Z,1020.04
2019-03-30T11:39:08.342Z,1020.03
2019-03-30T11:40:08.326Z,1020.02
2019-03-30T11:41:08.306Z,1019.97
2019-03-30T11:42:08.289Z,1019.94
2019-03-30T11:43:08.273Z,1019.93
2019-03-30T11:44:08.254Z,1019.94
2019-03-30T11:45:08.235Z,1019.88
2019-03-30T11:46:08.218Z,1019.83
2019-03-30T11:47:08.199Z,1019.89
2019-03-30T11:48:08.188Z,1019.86
2019-03-30T11:49:08.164Z,1019.84
2019-03-30T11:50:08.147Z,1019.77
2019-03-30T11:51:08.130Z,1019.80
2019-03-30T11:52:08.111Z,1019.81
2019-03-30T11:53:08.092Z,1019.81
2019-03-30T11:54:08.072Z,1019.75
2019-03-30T11:55:20.871Z,1019.75
2019-03-30T11:56:08.038Z,1019.70
2019-03-30T11:57:08.020Z,1019.73
2019-03-30T11:58:08.047Z,1019.74
2019-03-30T11:59:07.985Z,1019.71
2019-03-30T12:00:07.968Z,1019.67
2019-03-30T12:01:07.948Z,1019.69
2019-03-30T12:02:07.936Z,1019.71
2019-03-30T12:03:07.916Z,1019.70
2019-03-30T12:04:07.897Z,1019.63
2019-03-30T12:05:07.878Z,1019.59